Flight Track Log - Related Links

Times and Time Zones

All times are in EDT time to prevent confusion due to time zone crossing. See the OPT448 flight status page for this flight to view local times or setup timezone preferences in your user account.

Time Position Orientation Groundspeed Altitude Reporting Facility
EDT Latitude Longitude Course Direction KTS MPH feet Rate Location/Type
Mon 02:49:35 PM 41.0333 -73.7333 239° Southwest 208 239 3,000  Level New York TRACON
Mon 02:50:41 PM 41.0667 -73.8167 298° West 223 257 3,400 1,500 Climbing New York TRACON
Mon 02:51:35 PM 41.0833 -73.8667 294° West 242 278 6,000 2,300 Climbing New York TRACON
Mon 02:52:41 PM 41.0333 -73.9500 232° Southwest 241 277 8,000 1,950 Climbing New York TRACON
Mon 02:53:35 PM 41.0000 -74.0167 236° Southwest 266 306 9,900 1,500 Climbing New York TRACON
Mon 02:54:41 PM 40.9333 -74.1000 223° Southwest 272 313 11,000 1,810 Climbing New York TRACON
Mon 02:55:00 PM 40.7632 -74.2877 239° Southwest  Level FlightAware Approximate
Mon 02:55:41 PM 40.9000 -74.1833 242° Southwest 270 311 13,700  Level New York TRACON
Mon 02:56:41 PM 40.8500 -74.2500 225° Southwest 274 315 15,600 1,737 Climbing New York TRACON
Mon 02:57:35 PM 40.8000 -74.3333 232° Southwest 286 329 17,000 538 Climbing New York TRACON
Mon 02:59:17 PM 40.7206 -74.4675 232° Southwest 296 341 17,000 600 Level New York Center
Mon 03:00:15 PM 40.6719 -74.5550 234° Southwest 302 348 18,600 2,492 Climbing New York Center
Mon 03:01:15 PM 40.6256 -74.6292 231° Southwest 302 348 21,900 3,124 Climbing New York Center
Mon 03:02:16 PM 40.5794 -74.7058 232° Southwest 292 336 24,900 2,902 Climbing New York Center
Mon 03:03:17 PM 40.5394 -74.7772 234° Southwest 269 310 27,800 1,815 Climbing New York Center
Mon 03:04:15 PM 40.4931 -74.8508 230° Southwest 264 304 28,500 1,449 Climbing New York Center
Mon 03:06:15 PM 40.3936 -75.0139 231° Southwest 276 318 32,100 1,648 Climbing New York Center
Mon 03:07:17 PM 40.3453 -75.0819 227° Southwest 271 312 33,500 1,150 Climbing New York Center
Mon 03:08:15 PM 40.2947 -75.1522 227° Southwest 271 312 34,400 814 Climbing New York Center
Mon 03:09:15 PM 40.2419 -75.2250 226° Southwest 277 319 35,100 645 Climbing New York Center
Mon 03:10:16 PM 40.1869 -75.3028 227° Southwest 287 330 35,700 590 Climbing New York Center
Mon 03:11:17 PM 40.1317 -75.3836 228° Southwest 292 336 36,300 700 Climbing New York Center
Mon 03:12:16 PM 40.0722 -75.4664 227° Southwest 303 349 37,100 763 Climbing New York Center
Mon 03:13:15 PM 40.0128 -75.5464 226° Southwest 308 354 37,800 756 Climbing New York Center
Mon 03:14:15 PM 39.9550 -75.6292 228° Southwest 308 354 38,600 744 Climbing New York Center
Mon 03:15:16 PM 39.8975 -75.7117 228° Southwest 308 354 39,300 541 Climbing New York Center
Mon 03:16:17 PM 39.8417 -75.7969 230° Southwest 308 354 39,700 353 Climbing New York Center
Mon 03:17:15 PM 39.7856 -75.8875 231° Southwest 313 360 40,000 153 Climbing New York Center
Mon 03:18:15 PM 39.7294 -75.9806 232° Southwest 323 372 40,000  Level New York Center
Mon 03:20:30 PM 39.5933 -76.1867 229° Southwest 345 397 40,000  Level Washington Center
Mon 03:21:30 PM 39.5367 -76.2858 233° Southwest 352 405 40,000  Level Washington Center
Mon 03:22:30 PM 39.4694 -76.3819 228° Southwest 352 405 40,000  Level Washington Center
Mon 03:23:30 PM 39.4061 -76.4833 231° Southwest 357 411 40,000  Level Washington Center
Mon 03:24:30 PM 39.3344 -76.5844 228° Southwest 368 423 40,000  Level Washington Center
Mon 03:25:30 PM 39.2711 -76.6853 231° Southwest 373 429 40,000  Level Washington Center
Mon 03:26:30 PM 39.2056 -76.7861 230° Southwest 373 429 40,000 150 Level Washington Center
Mon 03:27:30 PM 39.1419 -76.8869 231° Southwest 373 429 40,300 350 Climbing Washington Center
Mon 03:28:30 PM 39.0761 -76.9900 231° Southwest 373 429 40,700 450 Climbing Washington Center
Mon 03:29:30 PM 39.0064 -77.0794 225° Southwest 368 423 41,200 500 Climbing Washington Center
Mon 03:30:30 PM 38.9322 -77.1608 220° Southwest 363 418 41,700 450 Climbing Washington Center
Mon 03:31:30 PM 38.8606 -77.2392 220° Southwest 363 418 42,100 450 Climbing Washington Center
Mon 03:32:30 PM 38.7883 -77.3175 220° Southwest 351 404 42,600 400 Climbing Washington Center
Mon 03:33:30 PM 38.7164 -77.3931 219° Southwest 351 404 42,900 200 Climbing Washington Center
Mon 03:34:30 PM 38.6464 -77.4708 221° Southwest 339 390 43,000 50 Climbing Washington Center
Mon 03:35:30 PM 38.5764 -77.5489 221° Southwest 339 390 43,000  Level Washington Center
Mon 03:36:30 PM 38.5064 -77.6267 221° Southwest 339 390 43,000  Level Washington Center
Mon 03:37:31 PM 38.4300 -77.7067 219° Southwest 345 397 43,000  Level Washington Center
Mon 03:38:30 PM 38.3597 -77.7842 221° Southwest 345 397 43,000  Level Washington Center
Mon 03:39:30 PM 38.2853 -77.8639 220° Southwest 345 397 43,000  Level Washington Center
Mon 03:40:30 PM 38.2106 -77.9436 220° Southwest 345 397 43,000  Level Washington Center
Mon 03:41:30 PM 38.1361 -78.0258 221° Southwest 345 397 43,000  Level Washington Center
Mon 03:42:30 PM 38.0614 -78.1050 220° Southwest 350 403 43,000  Level Washington Center
Mon 03:43:30 PM 37.9908 -78.1950 225° Southwest 337 388 43,000  Level Washington Center
Mon 03:44:31 PM 37.9239 -78.2875 227° Southwest 337 388 43,000  Level Washington Center
Mon 03:45:30 PM 37.8614 -78.3800 229° Southwest 347 399 43,000  Level Washington Center
Mon 03:46:30 PM 37.7967 -78.4722 228° Southwest 353 406 43,000  Level Washington Center
Mon 03:47:30 PM 37.7383 -78.5539 228° Southwest 353 406 43,000  Level Washington Center
Mon 03:48:30 PM 37.6733 -78.6486 229° Southwest 353 406 43,000  Level Washington Center
Mon 03:49:30 PM 37.6106 -78.7378 228° Southwest 353 406 43,000  Level Washington Center
Mon 03:50:30 PM 37.5456 -78.8292 228° Southwest 353 406 43,000  Level Washington Center
Mon 03:51:30 PM 37.4719 -78.9308 228° Southwest 353 406 43,000  Level Washington Center
Mon 03:52:30 PM 37.4067 -79.0222 228° Southwest 359 413 43,000  Level Washington Center
Mon 03:53:30 PM 37.3394 -79.1131 227° Southwest 359 413 43,000  Level Washington Center
Mon 03:54:30 PM 37.2719 -79.2067 228° Southwest 359 413 43,000  Level Washington Center
Mon 03:55:30 PM 37.2047 -79.2947 226° Southwest 359 413 43,000  Level Washington Center
Mon 03:56:31 PM 37.1372 -79.3828 226° Southwest 359 413 43,000  Level Washington Center
Mon 03:57:30 PM 37.0742 -79.4603 224° Southwest 359 413 43,000  Level Washington Center
Mon 03:58:30 PM 37.0067 -79.5478 226° Southwest 359 413 43,000  Level Washington Center
Mon 03:59:31 PM 36.9369 -79.6325 224° Southwest 359 413 43,000  Level Washington Center
Mon 04:00:30 PM 36.8694 -79.7200 226° Southwest 359 413 43,000  Level Washington Center
Mon 04:01:30 PM 36.7997 -79.8069 225° Southwest 359 413 43,000  Level Washington Center
Mon 04:04:17 PM 36.5983 -80.0489 224° Southwest 342 394 43,000  Level Atlanta Center
Mon 04:05:17 PM 36.5281 -80.1350 225° Southwest 349 402 43,000  Level Atlanta Center
Mon 04:06:17 PM 36.4600 -80.2236 226° Southwest 354 407 43,000  Level Atlanta Center
Mon 04:07:17 PM 36.3956 -80.2989 223° Southwest 359 413 43,000  Level Atlanta Center
Mon 04:08:17 PM 36.3250 -80.3844 224° Southwest 359 413 43,000  Level Atlanta Center
Mon 04:09:17 PM 36.2547 -80.4703 225° Southwest 359 413 43,000  Level Atlanta Center
Mon 04:10:17 PM 36.1842 -80.5556 224° Southwest 359 413 43,000  Level Atlanta Center
Mon 04:11:17 PM 36.1156 -80.6433 226° Southwest 354 407 43,000  Level Atlanta Center
Mon 04:12:17 PM 36.0369 -80.7392 225° Southwest 354 407 43,000  Level Atlanta Center
Mon 04:13:17 PM 35.9681 -80.8239 225° Southwest 360 414 43,000  Level Atlanta Center
Mon 04:14:17 PM 35.8953 -80.9089 223° Southwest 365 420 43,000  Level Atlanta Center
Mon 04:15:17 PM 35.8244 -80.9936 224° Southwest 365 420 43,000 -150 Level Atlanta Center
Mon 04:16:17 PM 35.7536 -81.0806 225° Southwest 365 420 42,700 -550 Descending Atlanta Center
Mon 04:17:17 PM 35.6783 -81.1703 224° Southwest 375 432 41,900 -1,000 Descending Atlanta Center
Mon 04:18:17 PM 35.6053 -81.2494 221° Southwest 380 437 40,700 -950 Descending Atlanta Center
Mon 04:19:17 PM 35.5303 -81.3492 227° Southwest 385 443 40,000 -350 Descending Atlanta Center
Mon 04:20:17 PM 35.4406 -81.4514 223° Southwest 403 464 40,000  Level Atlanta Center
Mon 04:21:17 PM 35.3653 -81.5428 225° Southwest 388 447 40,000  Level Atlanta Center
Mon 04:22:17 PM 35.2878 -81.6317 223° Southwest 388 447 40,000  Level Atlanta Center
Mon 04:23:17 PM 35.2122 -81.7203 224° Southwest 383 441 40,000  Level Atlanta Center
Mon 04:24:17 PM 35.1367 -81.8089 224° Southwest 383 441 40,000  Level Atlanta Center
Mon 04:25:17 PM 35.0592 -81.8997 224° Southwest 383 441 40,000  Level Atlanta Center
Mon 04:26:17 PM 34.9939 -82.0003 232° Southwest 383 441 40,000  Level Atlanta Center
Mon 04:27:17 PM 34.9289 -82.1031 232° Southwest 389 448 40,000  Level Atlanta Center
Mon 04:28:17 PM 34.8761 -82.1931 234° Southwest 389 448 40,000  Level Atlanta Center
Mon 04:29:17 PM 34.8108 -82.2958 232° Southwest 383 441 40,000  Level Atlanta Center
Mon 04:30:17 PM 34.7475 -82.3981 233° Southwest 389 448 40,000  Level Atlanta Center
Mon 04:31:17 PM 34.6842 -82.5006 233° Southwest 389 448 40,000  Level Atlanta Center
Mon 04:32:17 PM 34.6167 -82.6153 234° Southwest 389 448 40,000  Level Atlanta Center
Mon 04:33:17 PM 34.5511 -82.7172 232° Southwest 389 448 40,000  Level Atlanta Center
Mon 04:34:17 PM 34.4894 -82.8189 234° Southwest 389 448 40,000  Level Atlanta Center
Mon 04:35:17 PM 34.4300 -82.9181 234° Southwest 382 440 40,000  Level Atlanta Center
Mon 04:36:17 PM 34.3639 -83.0222 232° Southwest 388 447 40,000  Level Atlanta Center
Mon 04:37:17 PM 34.3000 -83.1233 233° Southwest 388 447 40,000 -150 Level Atlanta Center
Mon 04:38:17 PM 34.2383 -83.2247 234° Southwest 388 447 39,700 -650 Descending Atlanta Center
Mon 04:39:17 PM 34.1761 -83.3256 233° Southwest 388 447 38,700 -1,000 Descending Atlanta Center
Mon 04:40:17 PM 34.1244 -83.4064 232° Southwest 370 426 37,700 -1,000 Descending Atlanta Center
Mon 04:41:17 PM 34.0686 -83.4972 233° Southwest 346 398 36,700 -1,000 Descending Atlanta Center
Mon 04:42:17 PM 34.0125 -83.5853 232° Southwest 346 398 35,700 -800 Descending Atlanta Center
Mon 04:43:17 PM 33.9503 -83.6806 232° Southwest 351 404 35,100 -350 Descending Atlanta Center
Mon 04:44:17 PM 33.8900 -83.7786 233° Southwest 363 418 35,000 -50 Descending Atlanta Center
Mon 04:45:17 PM 33.8233 -83.8839 233° Southwest 363 418 35,000  Level Atlanta Center
Mon 04:46:17 PM 33.7503 -83.9639 222° Southwest 363 418 35,000  Level Atlanta Center
Mon 04:47:17 PM 33.6689 -84.0339 216° Southwest 361 415 35,000 -150 Level Atlanta Center
Mon 04:48:17 PM 33.5875 -84.1036 216° Southwest 361 415 34,700 -650 Descending Atlanta Center
Mon 04:49:17 PM 33.5061 -84.1833 219° Southwest 366 421 33,700 -1,050 Descending Atlanta Center
Mon 04:50:17 PM 33.4475 -84.2903 237° Southwest 380 437 32,600 -950 Descending Atlanta Center
Mon 04:51:17 PM 33.3950 -84.3897 238° Southwest 391 450 31,800 -950 Descending Atlanta Center
Mon 04:52:17 PM 33.3364 -84.5014 238° Southwest 399 459 30,700 -1,100 Descending Atlanta Center
Mon 04:53:17 PM 33.2794 -84.6078 237° Southwest 399 459 29,600 -1,050 Descending Atlanta Center
Mon 04:54:17 PM 33.2206 -84.7142 237° Southwest 392 451 28,600 -1,000 Descending Atlanta Center
Mon 04:55:17 PM 33.1636 -84.8256 239° Southwest 392 451 27,600 -1,000 Descending Atlanta Center
Mon 04:56:17 PM 33.0897 -84.9364 232° Southwest 399 459 26,600 -850 Descending Atlanta Center
Mon 04:57:17 PM 33.0056 -85.0222 221° Southwest 393 452 25,900 -900 Descending Atlanta Center
Mon 04:58:17 PM 32.9256 -85.1128 224° Southwest 400 460 24,800 -1,150 Descending Atlanta Center
Mon 04:59:17 PM 32.8539 -85.1861 221° Southwest 400 460 23,600 -1,400 Descending Atlanta Center
Mon 05:00:17 PM 32.7736 -85.2717 222° Southwest 395 455 22,000 -1,750 Descending Atlanta Center
Mon 05:01:17 PM 32.7267 -85.3747 242° Southwest 384 442 20,100 -1,950 Descending Atlanta Center
Mon 05:02:17 PM 32.6817 -85.4800 243° Southwest 367 422 18,100 -1,900 Descending Atlanta Center
Mon 05:03:17 PM 32.6408 -85.5881 246° West 361 415 16,300 -1,750 Descending Atlanta Center
Mon 05:04:17 PM 32.5956 -85.6908 242° Southwest 356 410 14,600 -1,600 Descending Atlanta Center
Mon 05:05:17 PM 32.5544 -85.7886 244° Southwest 351 404 13,100 -1,500 Descending Atlanta Center
Mon 05:06:17 PM 32.5156 -85.8839 244° Southwest 339 390 11,600 -1,550 Descending Atlanta Center
Mon 05:07:17 PM 32.4764 -85.9789 244° Southwest 334 384 10,000 -1,850 Descending Atlanta Center
Mon 05:08:17 PM 32.4417 -86.0619 244° Southwest 308 354 7,900 -2,150 Descending Atlanta Center
Mon 05:09:17 PM 32.4092 -86.1375 243° Southwest 280 322 5,700 -1,900 Descending Atlanta Center
Mon 05:10:17 PM 32.4056 -86.2258 267° West 256 295 4,100 -1,150 Descending Atlanta Center
Mon 05:11:17 PM 32.3981 -86.3019 263° West 246 283 3,400 -1,100 Descending Atlanta Center
Mon 05:12:17 PM 32.3800 -86.3728 253° West 233 268 1,900 -800 Descending Atlanta Center
Mon 05:13:17 PM 32.3536 -86.4386 245° Southwest 227 261 1,800 -450 Descending Atlanta Center
Mon 05:14:17 PM 32.3117 -86.4522 195° South 177 204 1,000 -800 Descending Atlanta Center
Mon 05:16:00 PM 32.3006 -86.3940 103° East  Level Estimated
Mon 05:23:00 PM 32.3006 -86.3940 239° Southwest  Level Estimated

Login

Don't have an account? Register now (free) for customized features, flight alerts, and more!